Latest Weather Observations for Mount Boyce

IDN60801

Issued at 5:03 am EST Friday 18 August 2017 (issued every 30 minutes, with the page automatically refreshed every 10 minutes)

About weather observations | Map of weather stations | Latest weather observations for NSW | Other Formats
Station Details ID: 063292 Name: MOUNT BOYCE AWS Lat: -33.62 Lon: 150.27 Height: 1080.0 m
Data from the previous 72 hours. | See also: Recent months at Mount Boyce
Date/Time
EST
Temp
°C
App
Temp
°C
Dew
Point
°C
Rel
Hum
%
Delta-T
°C
Wind Press
QNH
hPa
Press
MSL
hPa
Rain since
9am
mm
Dir  Spd
km/h
Gust
km/h
Spd
kts
Gust
kts
18/05:00am 2.3 -5.4 2.2 99 0.0 WSW 32 56 17 30 - - 0.2
18/04:42am 2.3 -6.4 2.2 99 0.0 WSW 37 57 20 31 - - 0.2
18/04:39am 2.3 -6.4 2.2 99 0.0 WSW 37 54 20 29 - - 0.2
18/04:30am 2.3 -5.6 2.2 99 0.0 WSW 33 57 18 31 - - 0.2
18/04:12am 2.6 -6.0 2.5 99 0.0 WSW 37 63 20 34 - - 0.2
18/04:00am 2.7 -5.9 2.6 99 0.0 WSW 37 56 20 30 - - 0.2
18/03:56am 2.8 -5.4 2.7 99 0.0 WSW 35 56 19 30 - - 0.0
18/03:30am 3.1 -4.5 3.0 99 0.0 WSW 32 52 17 28 - - 0.0
18/03:24am 3.2 -4.0 3.1 99 0.0 WSW 30 52 16 28 - - 0.0
18/03:14am 3.3 -3.9 3.2 99 0.0 WSW 30 46 16 25 - - 0.0
18/03:00am 3.4 -4.4 3.1 98 0.1 W 33 54 18 29 - - 0.0
18/02:30am 3.9 -3.6 3.6 98 0.1 WSW 32 50 17 27 - - 0.0
18/02:00am 6.2 -2.1 2.1 75 1.8 WSW 35 63 19 34 - - 0.0
18/01:30am 6.7 -2.0 1.8 71 2.1 WSW 37 70 20 38 - - 0.0
18/01:00am 7.5 -1.3 1.1 64 2.8 WSW 37 65 20 35 - - 0.0
18/12:44am 7.8 -2.2 1.0 62 2.9 W 43 87 23 47 - - 0.0
18/12:30am 7.6 -1.7 0.8 62 2.9 WSW 39 63 21 34 - - 0.0
18/12:01am 7.7 -0.8 0.9 62 2.9 W 35 57 19 31 - - 0.0
18/12:00am 7.5 -0.6 0.7 62 2.9 W 33 50 18 27 - - 0.0
 
Date/Time
EST
Temp
°C
App
Temp
°C
Dew
Point
°C
Rel
Hum
%
Delta-T
°C
Wind Press
QNH
hPa
Press
MSL
hPa
Rain since
9am
mm
Dir  Spd
km/h
Gust
km/h
Spd
kts
Gust
kts
17/11:30pm 7.5 -1.4 0.9 63 2.8 WSW 37 59 20 32 - - 0.0
17/11:00pm 7.7 -0.7 1.3 64 2.8 WSW 35 59 19 32 - - 0.0
17/10:30pm 7.9 -0.8 1.7 65 2.7 WSW 37 56 20 30 - - 0.0
17/10:00pm 8.0 0.1 2.0 66 2.7 WSW 33 61 18 33 - - 0.0
17/09:30pm 8.5 0.8 2.5 66 2.7 WSW 32 52 17 28 - - 0.0
17/09:00pm 8.7 0.9 2.7 66 2.7 W 33 52 18 28 - - 0.0
17/08:30pm 8.8 1.2 2.8 66 2.7 W 32 50 17 27 - - 0.0
17/08:00pm 8.7 0.5 2.9 67 2.6 W 35 57 19 31 - - 0.0
17/07:37pm 8.4 0.8 2.8 68 2.5 W 32 52 17 28 - - 0.0
17/07:30pm 8.6 1.0 3.0 68 2.5 W 32 46 17 25 - - 0.0
17/07:00pm 8.7 1.1 2.9 67 2.6 W 32 52 17 28 - - 0.0
17/06:30pm 8.9 1.3 2.7 65 2.8 W 32 50 17 27 - - 0.0
17/06:05pm 8.9 1.6 2.7 65 2.8 W 30 61 16 33 - - 0.0
17/06:00pm 8.8 1.9 2.8 66 2.7 W 28 39 15 21 - - 0.0
17/05:43pm 8.9 2.1 2.9 66 2.7 W 28 46 15 25 - - 0.0
17/05:30pm 9.1 1.5 3.1 66 2.7 W 32 43 17 23 - - 0.0
17/05:00pm 9.8 1.7 3.1 63 3.1 W 35 59 19 32 - - 0.0
17/04:30pm 10.3 2.3 3.6 63 3.1 W 35 61 19 33 - - 0.0
17/04:00pm 10.9 3.3 3.9 62 3.3 W 33 56 18 30 - - 0.0
17/03:32pm 10.9 3.4 4.6 65 3.0 W 33 57 18 31 - - 0.0
17/03:30pm 11.1 3.9 5.0 66 3.0 W 32 48 17 26 - - 0.0
17/03:00pm 11.2 3.3 4.4 63 3.3 W 35 56 19 30 - - 0.0
17/02:30pm 11.1 2.7 3.9 61 3.4 W 37 65 20 35 - - 0.0
17/02:00pm 11.3 4.0 4.3 62 3.4 W 32 56 17 30 - - 0.0
17/01:30pm 10.7 2.4 4.0 63 3.2 WSW 37 56 20 30 - - 0.0
17/01:00pm 10.9 3.4 4.4 64 3.1 W 33 54 18 29 - - 0.0
17/12:30pm 10.6 3.7 4.5 66 2.9 W 30 54 16 29 - - 0.0
17/12:00pm 10.2 3.0 5.2 71 2.4 WSW 32 52 17 28 - - 0.0
17/11:30am 9.2 0.5 4.0 70 2.4 WSW 39 65 21 35 - - 0.0
17/11:00am 8.9 0.6 4.1 72 2.2 WSW 37 59 20 32 - - 0.0
17/10:30am 8.3 -0.5 3.8 73 2.1 WSW 39 61 21 33 - - 0.0
17/10:04am 7.8 -1.7 3.8 76 1.8 WSW 43 63 23 34 - - 0.0
17/10:00am 7.8 -1.9 4.0 77 1.8 WSW 44 59 24 32 - - 0.0
17/09:30am 7.1 -3.0 3.7 79 1.6 WSW 46 69 25 37 - - 0.0
17/09:00am 6.6 -3.1 3.8 82 1.3 WSW 44 65 24 35 - - 2.4
17/08:42am 6.3 -2.8 3.8 84 1.1 W 41 59 22 32 - - 2.4
17/08:30am 6.1 -2.7 3.6 84 1.1 WSW 39 56 21 30 - - 2.4
17/08:07am 5.7 -2.7 3.5 86 1.0 W 37 56 20 30 - - 2.4
17/08:00am 5.7 -3.5 3.4 85 1.0 W 41 56 22 30 - - 2.4
17/07:30am 5.4 -3.1 3.4 87 0.9 W 37 52 20 28 - - 2.4
17/07:18am 5.4 -2.7 3.3 86 0.9 W 35 56 19 30 - - 2.4
17/07:00am 5.5 -3.0 3.3 86 1.0 WSW 37 54 20 29 - - 2.4
17/06:30am 5.2 -2.9 3.5 89 0.8 WSW 35 59 19 32 - - 2.4
17/06:05am 5.4 -3.4 3.6 88 0.8 WSW 39 57 21 31 - - 2.4
17/06:00am 5.3 -3.1 3.6 89 0.8 WSW 37 54 20 29 - - 2.4
17/05:37am 5.6 -2.4 3.6 87 0.9 WSW 35 57 19 31 - - 2.4
17/05:30am 5.3 -2.8 3.5 88 0.8 WSW 35 50 19 27 - - 2.4
17/05:00am 5.6 -2.4 3.9 89 0.8 WSW 35 61 19 33 - - 2.4
17/04:30am 5.7 -3.0 3.9 88 0.8 WSW 39 59 21 32 - - 2.4
17/04:00am 5.9 -2.8 4.1 88 0.8 WSW 39 61 21 33 - - 2.4
17/03:30am 5.9 -2.8 4.1 88 0.8 WSW 39 59 21 32 - - 2.4
17/03:00am 6.0 -3.1 4.2 88 0.8 W 41 61 22 33 - - 2.4
17/02:36am 5.9 -3.2 4.2 89 0.8 WSW 41 59 22 32 - - 2.4
17/02:30am 5.9 -3.5 4.2 89 0.8 WSW 43 59 23 32 - - 2.4
17/02:00am 6.2 -2.4 4.4 88 0.8 WSW 39 59 21 32 - - 2.4
17/01:30am 6.2 -2.4 4.5 89 0.8 WSW 39 57 21 31 - - 2.4
17/01:09am 6.1 -1.8 4.6 90 0.7 W 35 54 19 29 - - 2.4
17/01:00am 6.0 -2.2 4.6 91 0.6 WSW 37 54 20 29 - - 2.4
17/12:45am 6.0 -2.2 4.8 92 0.6 WSW 37 56 20 30 - - 2.4
17/12:30am 6.0 -1.8 4.8 92 0.6 W 35 50 19 27 - - 2.4
17/12:01am 5.9 -1.5 4.9 93 0.5 W 33 52 18 28 - - 2.4
17/12:00am 6.0 -1.8 5.0 93 0.5 W 35 52 19 28 - - 2.4
 
Date/Time
EST
Temp
°C
App
Temp
°C
Dew
Point
°C
Rel
Hum
%
Delta-T
°C
Wind Press
QNH
hPa
Press
MSL
hPa
Rain since
9am
mm
Dir  Spd
km/h
Gust
km/h
Spd
kts
Gust
kts
16/11:30pm 6.0 -1.4 4.8 92 0.6 W 33 50 18 27 - - 2.4
16/11:24pm 6.0 -1.3 4.6 91 0.6 W 32 50 17 27 - - 2.4
16/11:00pm 6.2 -1.3 4.7 90 0.7 WSW 33 50 18 27 - - 2.4
16/10:49pm 6.2 -1.6 4.7 90 0.7 WSW 35 54 19 29 - - 2.4
16/10:30pm 6.2 -1.3 4.7 90 0.7 W 33 48 18 26 - - 2.4
16/10:00pm 6.3 -1.9 4.9 91 0.7 WSW 37 50 20 27 - - 2.4
16/09:37pm 6.3 -1.4 5.3 93 0.5 WSW 35 56 19 30 - - 2.4
16/09:30pm 6.3 -1.4 5.3 93 0.5 W 35 50 19 27 - - 2.4
16/09:00pm 6.3 -1.0 5.3 93 0.5 WSW 33 54 18 29 - - 2.4
16/08:47pm 6.4 -0.7 5.4 93 0.5 W 32 50 17 27 - - 2.4
16/08:30pm 6.3 -0.8 5.4 94 0.4 W 32 46 17 25 - - 2.4
16/08:20pm 6.5 -1.3 5.1 91 0.7 WSW 35 54 19 29 - - 2.4
16/08:00pm 6.4 -0.4 5.0 91 0.7 W 30 44 16 24 - - 2.4
16/07:30pm 6.6 0.2 5.1 90 0.7 W 28 43 15 23 - - 2.4
16/07:03pm 6.8 0.4 5.1 89 0.8 WSW 28 46 15 25 - - 2.4
16/07:00pm 6.7 0.3 5.0 89 0.8 WSW 28 43 15 23 - - 2.4
16/06:38pm 6.9 -0.4 4.7 86 1.0 W 32 50 17 27 - - 2.4
16/06:30pm 7.0 -0.2 4.8 86 1.0 W 32 48 17 26 - - 2.4
16/06:00pm 7.3 -0.2 4.6 83 1.3 W 33 54 18 29 - - 2.4
16/05:30pm 7.6 1.1 4.9 83 1.3 WSW 28 46 15 25 - - 2.4
16/05:00pm 8.4 1.0 5.0 79 1.6 W 33 52 18 28 - - 2.4
16/04:30pm 9.1 1.5 5.7 79 1.7 W 35 56 19 30 - - 2.4
16/04:00pm 9.7 2.7 5.9 77 1.9 WSW 32 57 17 31 - - 2.4
16/03:30pm 9.5 0.0 5.1 74 2.1 W 44 69 24 37 - - 2.4
16/03:00pm 9.9 2.3 5.9 76 2.0 W 35 57 19 31 - - 2.4
16/02:30pm 9.2 0.5 6.1 81 1.5 W 41 63 22 34 - - 2.4
16/02:00pm 8.6 0.4 6.6 87 1.0 WSW 39 69 21 37 - - 2.4
16/01:30pm 7.6 -1.1 5.9 89 0.8 WSW 41 74 22 40 - - 2.2
16/01:14pm 8.6 -0.6 8.0 96 0.3 W 46 69 25 37 - - 2.2
16/01:00pm 8.2 -0.5 7.9 98 0.2 WSW 43 63 23 34 - - 2.2
16/12:30pm 7.8 -0.9 7.7 99 0.1 WSW 43 70 23 38 - - 2.2
16/12:00pm 7.0 -0.4 6.9 99 0.0 WSW 35 61 19 33 - - 2.2
16/11:30am 7.6 -0.4 7.5 99 0.0 W 39 65 21 35 - - 2.2
16/11:00am 6.9 -3.7 6.8 99 0.0 W 52 85 28 46 - - 2.2
16/10:31am 7.0 -1.9 6.9 99 0.0 W 43 70 23 38 - - 2.2
16/10:30am 6.8 -2.3 6.7 99 0.0 W 44 70 24 38 - - 2.2
16/10:00am 6.9 -3.0 6.8 99 0.0 W 48 76 26 41 - - 1.6
16/09:30am 7.5 -3.0 7.4 99 0.0 W 52 91 28 49 - - 0.4
16/09:03am 8.0 -1.6 7.9 99 0.1 WSW 48 80 26 43 - - 0.0
16/09:00am 8.0 -0.8 7.9 99 0.1 W 44 80 24 43 - - 0.0
16/08:30am 8.8 0.7 8.7 99 0.1 WSW 41 69 22 37 - - 0.0
16/08:00am 8.8 0.2 8.7 99 0.1 WSW 44 72 24 39 - - 0.0
16/07:30am 8.9 0.8 8.8 99 0.1 WSW 41 63 22 34 - - 0.0
16/07:00am 9.5 2.2 8.9 96 0.3 W 37 56 20 30 - - 0.0
16/06:53am 9.8 2.9 8.7 93 0.6 W 35 56 19 30 - - 0.0
16/06:30am 10.6 2.1 7.1 79 1.8 WSW 41 72 22 39 - - 0.0
16/06:00am 13.9 4.4 4.8 54 4.5 W 44 72 24 39 - - 0.0
16/05:30am 15.9 5.4 3.7 44 6.0 W 48 83 26 45 - - 0.0
16/05:00am 16.3 7.5 3.7 43 6.2 W 39 80 21 43 - - 0.0
16/04:30am 16.4 8.5 4.1 44 6.1 W 35 65 19 35 - - 0.0
16/04:06am 16.1 8.7 4.2 45 5.9 W 32 50 17 27 - - 0.0
16/04:00am 16.1 8.7 4.2 45 5.9 W 32 46 17 25 - - 0.0
16/03:30am 16.4 9.1 4.4 45 6.0 WNW 32 61 17 33 - - 0.0
16/03:00am 16.9 10.0 4.6 44 6.2 WNW 30 57 16 31 - - 0.0
16/02:30am 17.3 9.4 4.6 43 6.4 WNW 35 59 19 32 - - 0.0
16/02:00am 17.4 9.6 5.0 44 6.3 WNW 35 65 19 35 - - 0.0
16/01:30am 17.2 9.9 5.5 46 6.0 WNW 33 65 18 35 - - 0.0
16/01:00am 17.1 9.5 5.7 47 5.9 WNW 35 59 19 32 - - 0.0
16/12:30am 16.9 8.5 5.8 48 5.7 WNW 39 89 21 48 - - 0.0
16/12:21am 17.2 8.5 5.8 47 5.9 WNW 41 89 22 48 - - 0.0
16/12:00am 16.8 9.2 5.7 48 5.7 WNW 35 69 19 37 - - 0.0
 
Date/Time
EST
Temp
°C
App
Temp
°C
Dew
Point
°C
Rel
Hum
%
Delta-T
°C
Wind Press
QNH
hPa
Press
MSL
hPa
Rain since
9am
mm
Dir  Spd
km/h
Gust
km/h
Spd
kts
Gust
kts
15/11:30pm 16.6 9.4 5.9 49 5.5 WNW 33 67 18 36 - - 0.0
15/11:13pm 16.7 8.7 5.9 49 5.6 WNW 37 74 20 40 - - 0.0
15/11:00pm 16.4 9.2 6.0 50 5.3 WNW 33 56 18 30 - - 0.0
15/10:30pm 16.1 8.5 5.7 50 5.3 WNW 35 59 19 32 - - 0.0
15/10:08pm 15.7 9.4 5.9 52 5.0 NW 28 56 15 30 - - 0.0
15/10:00pm 15.6 10.1 5.8 52 5.0 NW 24 54 13 29 - - 0.0
15/09:30pm 15.4 10.2 5.6 52 5.0 NW 22 43 12 23 - - 0.0
15/09:00pm 15.5 9.2 5.7 52 5.0 WNW 28 46 15 25 - - 0.0
15/08:58pm 15.6 9.3 5.8 52 5.0 WNW 28 46 15 25 - - 0.0
15/08:30pm 14.9 10.1 5.7 54 4.7 NW 20 35 11 19 - - 0.0
15/08:00pm 14.8 10.0 5.6 54 4.6 WNW 20 37 11 20 - - 0.0
15/07:30pm 14.3 9.7 5.7 56 4.3 WNW 19 30 10 16 - - 0.0
15/07:00pm 14.4 8.9 6.0 57 4.3 W 24 43 13 23 - - 0.0
15/06:30pm 14.4 9.0 6.5 59 4.0 W 24 32 13 17 - - 0.0
15/06:00pm 14.7 9.1 7.0 60 4.0 W 26 39 14 21 - - 0.0
15/05:30pm 14.8 9.3 7.6 62 3.8 W 26 39 14 21 - - 0.0
15/05:00pm 15.2 10.0 8.7 65 3.5 W 26 39 14 21 - - 0.0
15/04:30pm 15.9 9.6 9.1 64 3.7 W 32 52 17 28 - - 0.0
15/04:00pm 16.0 10.1 9.2 64 3.7 W 30 48 16 26 - - 0.0
15/03:47pm 16.2 10.3 9.2 63 3.8 W 30 50 16 27 - - 0.0
15/03:30pm 16.7 11.0 9.9 64 3.8 W 30 43 16 23 - - 0.0
15/03:00pm 16.8 10.9 9.2 61 4.2 W 30 46 16 25 - - 0.0
15/02:30pm 16.4 10.0 8.4 59 4.3 W 32 46 17 25 - - 0.0
15/02:00pm 16.2 8.6 7.7 57 4.5 W 37 56 20 30 - - 0.0
15/01:30pm 15.8 8.1 7.1 56 4.6 W 37 63 20 34 - - 0.0
15/01:02pm 16.3 8.1 6.7 53 5.0 W 39 69 21 37 - - 0.0
15/01:00pm 16.7 9.4 7.4 54 4.9 W 35 52 19 28 - - 0.0
15/12:30pm 15.7 8.3 6.7 55 4.7 W 35 65 19 35 - - 0.0
15/12:00pm 15.7 9.8 7.5 58 4.3 W 28 56 15 30 - - 0.0
15/11:56am 15.9 10.0 7.7 58 4.3 W 28 56 15 30 - - 0.0
15/11:30am 14.7 11.2 8.6 67 3.3 W 17 24 9 13 - - 0.0
15/11:00am 12.7 8.6 7.8 72 2.6 W 19 33 10 18 - - 0.0
15/10:30am 11.7 8.1 8.2 79 1.8 W 17 28 9 15 - - 0.0
15/10:00am 10.8 6.5 6.9 77 2.0 WSW 19 26 10 14 - - 0.0
15/09:30am 11.5 7.1 6.4 71 2.6 W 19 28 10 15 - - 0.0
15/09:00am 11.3 7.3 6.6 73 2.4 W 17 26 9 14 - - 0.0
15/08:30am 10.3 5.7 6.5 77 1.9 W 20 32 11 17 - - 0.0
15/08:00am 8.7 5.2 5.4 80 1.6 WSW 13 19 7 10 - - 0.0
15/07:30am 9.5 5.4 6.0 79 1.7 WSW 17 28 9 15 - - 0.0
15/07:00am 9.4 5.6 5.8 78 1.8 WSW 15 22 8 12 - - 0.0
15/06:30am 9.3 5.5 5.7 78 1.8 WSW 15 20 8 11 - - 0.0
15/06:00am 8.8 4.4 5.0 77 1.8 WSW 17 24 9 13 - - 0.0
15/05:30am 7.9 3.5 4.5 79 1.6 WSW 17 24 9 13 - - 0.0

Other Formats:

Comma delimited format used in spreadsheet applications
http://www.bom.gov.au/fwo/IDN60801/IDN60801.94743.axf

JavaScript Object Notation format (JSON) in row-major order
http://www.bom.gov.au/fwo/IDN60801/IDN60801.94743.json